Omemee, North Dakota
Current Conditions -  °F | °C
As of 1:15 PM on Monday 20 Oct 2014 (Local Time) from KRUG Reporting Station
Clear Clear  
Wind Chill: 63°   Ceiling: Unl
Heat Index: 63°   Visibility: 9mi
Dew Point: 43°   Wind: 9mph
Humidity: 48%   Direction: 150°SSE
Pressure: 30.01"   Gusts: NA
Location:  48.5496°N, 100.255°W
Report Text: KRUG 201815Z AUTO 15008KT 9SM CLR 17/06 A3001 RMK AO2
Loading
Personal Weather Stations






























Interactive Weather Map
Tropical Storm Tracking
New forecast layout! Learn more

10-Day Weather Forecast

Advertisements
Track Severe Weather on mobile